Terminal Aerodrome Forecast
Issued by NWS

Home | Current Version | Previous Version | Text Only | Print | Product List | Glossary On
Versions: 1 2 3 4 5 6 7 8 9 10 11 12 13 14 15 16 17 18 19 20 21 22 23 24 25 26 27 28 29 30 31 32
000
FTUS46 KLOX 242300 RRA
TAFLAX
TAF
KLAX 242340Z 2500/2606 27009KT P6SM FEW025 BKN040 OVC100
     FM250300 27007KT P6SM SCT050
     FM250700 VRB03KT P6SM BKN025
     FM251700 24012KT P6SM BKN030
     FM252000 25018G25KT P6SM BKN030
     FM260200 25022G30KT P6SM OVC035
     FM260500 25010KT P6SM SCT035=

USA.gov is the U.S. government's official web portal to all federal, state and local government web resources and services.